Latest Weather Observations for Southern Cross Airport

IDW60801

Issued at 6:03 pm WST Thursday 21 February 2019 (issued every 10 minutes, with the page automatically refreshed every 10 minutes)

About weather observations | Map of weather stations | Latest weather observations for WA | Other Formats
Station Details ID: 012320 Name: SOUTHERN CROSS AIRFIELD Lat: -31.24 Lon: 119.36 Height: 347.4 m
Data from the previous 72 hours. | See also: Recent months at Southern Cross Airport
Date/Time
WST
Temp
°C
App
Temp
°C
Dew
Point
°C
Rel
Hum
%
Delta-T
°C
Wind Press
QNH
hPa
Press
MSL
hPa
Rain since
9am
mm
Dir  Spd
km/h
Gust
km/h
Spd
kts
Gust
kts
21/06:00pm 33.9 28.2 2.7 14 16.3 W 22 30 12 16 1010.8 1008.8 0.0
21/05:30pm 34.9 29.9 3.5 14 16.6 W 19 24 10 13 1010.6 1008.6 0.0
21/05:00pm 35.4 29.7 2.8 13 17.2 W 22 33 12 18 1010.5 1008.5 0.0
21/04:30pm 36.1 30.5 1.0 11 18.0 W 20 32 11 17 1010.5 1008.5 0.0
21/04:00pm 35.8 30.1 3.1 13 17.3 W 22 35 12 19 1010.6 1008.6 0.0
21/03:30pm 36.3 30.3 3.5 13 17.5 WNW 24 39 13 21 1010.7 1008.7 0.0
21/03:00pm 36.2 30.0 2.3 12 17.8 W 24 35 13 19 1010.9 1008.9 0.0
21/02:35pm 35.9 29.7 2.1 12 17.6 W 24 43 13 23 1011.1 1009.1 0.0
21/02:30pm 35.8 29.6 4.2 14 17.0 W 26 39 14 21 1011.1 1009.1 0.0
21/02:00pm 35.6 29.5 5.0 15 16.7 WNW 26 46 14 25 1011.4 1009.4 0.0
21/01:58pm 36.1 30.1 5.4 15 16.9 W 26 46 14 25 1011.4 1009.4 0.0
21/01:30pm 34.5 29.0 5.9 17 15.7 WNW 24 32 13 17 1011.7 1009.6 0.0
21/01:00pm 35.0 30.9 10.1 22 14.6 WNW 22 32 12 17 1012.0 1009.9 0.0
21/12:30pm 33.3 29.0 10.6 25 13.3 WNW 24 33 13 18 1012.2 1010.1 0.0
21/12:00pm 32.6 29.1 12.3 29 12.2 W 22 35 12 19 1012.4 1010.3 0.0
21/11:30am 31.6 28.3 12.9 32 11.3 W 22 30 12 16 1012.8 1010.8 0.0
21/11:00am 30.8 27.8 12.7 33 10.9 W 20 28 11 15 1013.0 1011.0 0.0
21/10:30am 30.0 27.4 13.3 36 10.1 WNW 19 26 10 14 1013.2 1011.2 0.0
21/10:00am 28.0 26.1 13.1 39 8.9 W 15 24 8 13 1013.3 1011.3 0.0
21/09:30am 26.3 24.8 13.1 44 7.8 W 13 19 7 10 1013.3 1011.3 0.0
21/09:00am 25.2 23.7 13.1 47 7.1 W 13 17 7 9 1013.4 1011.4 0.0
21/08:30am 23.9 22.3 12.8 49 6.5 WSW 13 20 7 11 1013.4 1011.4 0.0
21/08:00am 22.7 20.9 12.0 50 6.1 WSW 13 19 7 10 1013.3 1011.3 0.0
21/07:30am 21.9 19.3 11.9 53 5.7 WSW 17 22 9 12 1013.2 1011.2 0.0
21/07:00am 21.2 18.4 11.5 54 5.5 WSW 17 22 9 12 1013.0 1011.0 0.0
21/06:30am 20.1 18.7 10.8 55 5.2 SW 9 11 5 6 1012.6 1010.5 0.0
21/06:00am 18.9 17.9 10.2 57 4.7 WSW 6 7 3 4 1012.2 1010.1 0.0
21/05:30am 18.6 18.3 8.8 53 5.2 CALM 0 0 0 0 1011.9 1009.8 0.0
21/05:00am 19.6 18.4 9.5 52 5.5 WSW 6 7 3 4 1011.7 1009.6 0.0
21/04:30am 20.1 18.9 9.4 50 5.8 WSW 6 6 3 3 1011.6 1009.5 0.0
21/04:00am 20.8 19.6 9.7 49 6.1 WSW 6 7 3 4 1011.2 1009.2 0.0
21/03:30am 20.8 19.2 8.8 46 6.4 W 7 9 4 5 1011.1 1009.1 0.0
21/03:00am 21.9 21.2 8.4 42 7.2 WNW 2 6 1 3 1011.0 1009.0 0.0
21/02:30am 22.3 20.3 6.1 35 8.3 NW 6 7 3 4 1011.0 1009.0 0.0
21/02:00am 23.4 20.1 4.4 29 9.6 NNW 11 17 6 9 1011.0 1009.0 0.0
21/01:30am 24.5 21.5 4.3 27 10.2 NE 9 11 5 6 1011.1 1009.1 0.0
21/01:00am 25.5 23.0 4.6 26 10.7 NNE 7 9 4 5 1011.1 1009.1 0.0
21/12:30am 26.8 22.7 4.6 24 11.4 N 15 19 8 10 1011.1 1009.1 0.0
21/12:00am 25.8 23.5 4.9 26 10.8 NNW 6 17 3 9 1011.2 1009.2 0.0
 
Date/Time
WST
Temp
°C
App
Temp
°C
Dew
Point
°C
Rel
Hum
%
Delta-T
°C
Wind Press
QNH
hPa
Press
MSL
hPa
Rain since
9am
mm
Dir  Spd
km/h
Gust
km/h
Spd
kts
Gust
kts
20/11:30pm 28.2 24.2 5.1 23 12.1 NE 15 20 8 11 1011.1 1009.1 0.0
20/11:00pm 29.2 24.4 4.6 21 12.9 ENE 19 28 10 15 1011.1 1009.1 0.0
20/10:30pm 30.1 25.3 4.7 20 13.4 ENE 19 28 10 15 1011.1 1009.1 0.0
20/10:00pm 31.2 26.3 4.9 19 14.0 ENE 20 32 11 17 1011.0 1009.0 0.0
20/09:30pm 32.0 25.9 4.7 18 14.5 NE 26 44 14 24 1011.0 1009.0 0.0
20/09:00pm 32.3 28.7 5.0 18 14.6 E 13 30 7 16 1010.7 1008.7 0.0
20/08:30pm 33.0 29.9 5.5 18 14.9 N 11 35 6 19 1010.1 1008.0 0.0
20/08:00pm 34.3 31.1 4.9 16 15.9 E 11 19 6 10 1009.0 1006.9 0.0
20/07:30pm 32.9 30.2 5.5 18 14.8 SW 9 13 5 7 1008.6 1006.5 0.0
20/07:00pm 35.2 32.9 5.6 16 16.3 SSW 7 9 4 5 1008.2 1006.2 0.0
20/06:30pm 36.8 34.3 3.9 13 17.7 S 6 11 3 6 1007.9 1005.9 0.0
20/06:00pm 37.0 34.5 4.0 13 17.9 SW 6 7 3 4 1007.8 1005.8 0.0
20/05:30pm 38.0 34.9 3.7 12 18.5 SW 9 11 5 6 1007.7 1005.7 0.0
20/05:00pm 37.2 34.8 4.2 13 17.9 SSW 6 9 3 5 1007.8 1005.8 0.0
20/04:30pm 37.4 35.0 4.4 13 18.0 WSW 6 9 3 5 1007.9 1005.9 0.0
20/04:00pm 37.7 33.8 3.4 12 18.5 ESE 13 24 7 13 1008.0 1006.0 0.0
20/03:30pm 38.8 34.5 3.1 11 19.2 N 15 26 8 14 1008.4 1006.4 0.0
20/03:00pm 38.3 34.1 3.9 12 18.7 ENE 15 24 8 13 1008.9 1006.8 0.0
20/02:30pm 37.7 33.0 3.4 12 18.4 N 17 28 9 15 1009.3 1007.2 0.0
20/02:00pm 37.0 33.0 2.9 12 18.1 NNE 13 22 7 12 1009.8 1007.7 0.0
20/01:30pm 36.8 33.0 3.9 13 17.7 N 13 26 7 14 1010.3 1008.3 0.0
20/01:00pm 36.6 32.4 3.7 13 17.7 NNE 15 24 8 13 1010.6 1008.6 0.0
20/12:30pm 36.0 31.3 3.3 13 17.4 N 17 28 9 15 1010.9 1008.9 0.0
20/12:00pm 35.3 29.6 2.7 13 17.1 NE 22 33 12 18 1011.6 1009.5 0.0
20/11:30am 34.6 29.2 2.2 13 16.8 NE 20 32 11 17 1012.2 1010.1 0.0
20/11:00am 32.8 26.7 2.8 15 15.5 NNE 24 37 13 20 1012.7 1010.6 0.0
20/10:30am 32.7 26.2 2.7 15 15.5 NE 26 35 14 19 1013.1 1011.1 0.0
20/10:00am 31.3 24.4 2.5 16 14.7 NE 28 41 15 22 1013.4 1011.4 0.0
20/09:30am 30.8 24.2 2.1 16 14.5 NE 26 43 14 23 1013.5 1011.5 0.0
20/09:00am 29.3 22.3 1.7 17 13.7 NE 28 37 15 20 1013.6 1011.6 0.0
20/08:30am 28.2 19.8 1.7 18 13.1 NE 35 44 19 24 1013.5 1011.5 0.0
20/08:00am 27.1 19.5 0.8 18 12.7 ENE 30 39 16 21 1013.6 1011.6 0.0
20/07:30am 25.5 18.3 0.9 20 11.8 ENE 28 33 15 18 1013.9 1011.9 0.0
20/07:00am 24.5 19.1 1.4 22 11.1 ENE 19 30 10 16 1014.0 1012.0 0.0
20/06:30am 23.0 19.2 1.9 25 10.1 E 11 15 6 8 1013.8 1011.8 0.0
20/06:00am 22.3 17.9 2.9 28 9.4 E 15 22 8 12 1013.6 1011.6 0.0
20/05:30am 21.9 18.1 4.0 31 8.8 E 13 17 7 9 1013.5 1011.5 0.0
20/05:00am 22.3 19.4 4.4 31 8.9 SE 9 13 5 7 1013.5 1011.5 0.0
20/04:30am 23.0 19.7 4.5 30 9.3 ESE 11 15 6 8 1013.2 1011.2 0.0
20/04:00am 23.7 19.6 4.6 29 9.7 ESE 15 20 8 11 1013.0 1011.0 0.0
20/03:30am 24.4 20.1 5.2 29 9.8 E 17 28 9 15 1012.7 1010.6 0.0
20/03:00am 24.4 20.1 5.2 29 9.9 E 17 24 9 13 1013.0 1011.0 0.0
20/02:30am 24.5 21.0 5.3 29 9.9 ESE 13 19 7 10 1013.5 1011.5 0.0
20/02:00am 24.5 20.2 5.3 29 9.9 ESE 17 22 9 12 1013.4 1011.4 0.0
20/01:30am 25.1 21.2 5.3 28 10.2 ESE 15 19 8 10 1013.4 1011.4 0.0
20/01:00am 26.1 21.8 5.1 26 10.9 SE 17 20 9 11 1013.4 1011.4 0.0
20/12:30am 27.2 23.0 5.5 25 11.4 E 17 24 9 13 1013.2 1011.2 0.0
20/12:00am 27.6 23.0 5.8 25 11.5 E 19 28 10 15 1013.1 1011.1 0.0
 
Date/Time
WST
Temp
°C
App
Temp
°C
Dew
Point
°C
Rel
Hum
%
Delta-T
°C
Wind Press
QNH
hPa
Press
MSL
hPa
Rain since
9am
mm
Dir  Spd
km/h
Gust
km/h
Spd
kts
Gust
kts
19/11:30pm 27.8 23.7 6.0 25 11.6 E 17 28 9 15 1013.0 1011.0 0.0
19/11:00pm 28.6 23.9 6.1 24 12.0 E 20 30 11 16 1012.8 1010.8 0.0
19/10:30pm 28.9 24.8 6.3 24 12.1 E 17 26 9 14 1012.8 1010.8 0.0
19/10:00pm 29.7 24.7 6.4 23 12.6 ENE 22 33 12 18 1012.7 1010.6 0.0
19/09:30pm 30.3 25.0 6.9 23 12.8 ENE 24 35 13 19 1012.7 1010.6 0.0
19/09:00pm 30.7 25.7 6.6 22 13.1 ENE 22 32 12 17 1012.5 1010.4 0.0
19/08:30pm 31.5 27.1 6.5 21 13.7 ENE 19 28 10 15 1012.1 1010.0 0.0
19/08:00pm 32.0 27.9 6.2 20 14.1 E 17 24 9 13 1011.8 1009.7 0.0
19/07:30pm 32.8 28.1 6.2 19 14.6 E 20 28 11 15 1011.6 1009.5 0.0
19/07:00pm 33.5 28.4 5.9 18 15.1 E 22 32 12 17 1011.2 1009.2 0.0
19/06:30pm 34.6 29.9 6.0 17 15.7 ESE 20 30 11 16 1011.0 1009.0 0.0
19/06:00pm 35.7 31.9 6.0 16 16.5 ESE 15 24 8 13 1010.9 1008.9 0.0
19/05:30pm 35.8 32.2 5.1 15 16.8 ESE 13 15 7 8 1010.9 1008.9 0.0
19/05:00pm 36.2 33.5 5.5 15 16.9 SE 9 20 5 11 1010.8 1008.8 0.0
19/04:30pm 35.7 33.3 5.1 15 16.7 S 7 13 4 7 1011.0 1009.0 0.0
19/04:00pm 36.3 34.0 5.5 15 17.0 SSE 7 13 4 7 1011.0 1009.0 0.0
19/03:30pm 35.9 33.3 6.2 16 16.5 E 9 15 5 8 1011.2 1009.2 0.0
19/03:00pm 36.8 33.4 5.9 15 17.2 NNE 13 22 7 12 1011.3 1009.3 0.0
19/02:30pm 36.3 34.2 6.5 16 16.7 N 7 17 4 9 1011.8 1009.7 0.0
19/02:00pm 35.1 30.9 5.5 16 16.2 ESE 17 26 9 14 1012.2 1010.1 0.0
19/01:30pm 35.1 31.2 5.5 16 16.2 E 15 24 8 13 1012.7 1010.6 0.0
19/01:00pm 34.7 31.3 6.1 17 15.8 ENE 13 24 7 13 1013.2 1011.2 0.0
19/12:30pm 34.4 30.2 5.8 17 15.7 NE 17 30 9 16 1013.5 1011.5 0.0
19/12:00pm 33.2 29.0 5.7 18 15.0 NNE 17 26 9 14 1013.8 1011.8 0.0
19/11:30am 32.8 29.1 6.2 19 14.6 N 15 26 8 14 1014.2 1012.2 0.0
19/11:00am 31.6 27.8 5.9 20 13.9 NNE 15 24 8 13 1014.8 1012.7 0.0
19/10:30am 31.0 27.3 6.1 21 13.5 N 15 24 8 13 1015.2 1013.1 0.0
19/10:00am 29.1 24.6 5.9 23 12.4 N 19 26 10 14 1015.5 1013.5 0.0
19/09:30am 28.2 23.4 5.7 24 11.9 N 20 28 11 15 1015.7 1013.7 0.0
19/09:00am 26.8 22.0 5.7 26 11.1 NE 20 28 11 15 1015.9 1013.9 0.0
19/08:30am 25.6 20.7 5.2 27 10.5 NE 20 26 11 14 1015.9 1013.9 0.0
19/08:00am 23.9 20.0 5.3 30 9.5 E 15 24 8 13 1015.8 1013.8 0.0
19/07:30am 22.3 18.4 5.3 33 8.6 E 15 24 8 13 1015.8 1013.8 0.0
19/07:00am 21.2 17.7 5.6 36 7.9 ESE 13 19 7 10 1015.7 1013.7 0.0
19/06:30am 18.7 15.1 6.9 46 6.0 SE 15 19 8 10 1015.5 1013.5 0.0
19/06:00am 18.1 14.4 6.3 46 5.9 SE 15 17 8 9 1015.0 1012.9 0.0
19/05:30am 18.1 14.0 6.0 45 6.0 SE 17 19 9 10 1014.4 1012.4 0.0
19/05:00am 18.7 15.6 5.5 42 6.6 ESE 11 15 6 8 1014.0 1012.0 0.0
19/04:30am 18.9 15.8 5.4 41 6.7 ESE 11 15 6 8 1013.9 1011.9 0.0
19/04:00am 19.3 16.1 5.0 39 7.1 SE 11 13 6 7 1013.8 1011.8 0.0
19/03:30am 19.7 15.6 4.2 36 7.6 ESE 15 19 8 10 1013.7 1011.7 0.0
19/03:00am 20.1 15.8 3.3 33 8.1 SE 15 19 8 10 1013.6 1011.6 0.0
19/02:30am 19.8 15.8 2.6 32 8.1 SE 13 15 7 8 1013.8 1011.8 0.0
19/02:00am 20.6 16.1 2.4 30 8.6 SE 15 17 8 9 1013.9 1011.9 0.0
19/01:30am 21.8 17.3 2.0 27 9.4 SE 15 20 8 11 1013.9 1011.9 0.0
19/01:00am 21.9 18.3 3.1 29 9.1 S 11 15 6 8 1013.8 1011.8 0.0
19/12:30am 23.5 20.3 2.9 26 10.1 E 9 17 5 9 1013.9 1011.9 0.0
19/12:00am 23.8 20.2 3.2 26 10.1 E 11 17 6 9 1014.1 1012.1 0.0
 
Date/Time
WST
Temp
°C
App
Temp
°C
Dew
Point
°C
Rel
Hum
%
Delta-T
°C
Wind Press
QNH
hPa
Press
MSL
hPa
Rain since
9am
mm
Dir  Spd
km/h
Gust
km/h
Spd
kts
Gust
kts
18/11:30pm 24.5 20.2 3.2 25 10.5 E 15 20 8 11 1014.2 1012.2 0.0
18/11:00pm 24.9 20.6 3.5 25 10.7 E 15 19 8 10 1014.5 1012.5 0.0
18/10:30pm 25.6 20.6 3.6 24 11.0 E 19 28 10 15 1014.5 1012.5 0.0
18/10:00pm 25.6 20.8 4.7 26 10.7 E 19 24 10 13 1014.8 1012.7 0.0
18/09:30pm 26.1 21.8 5.1 26 10.9 ESE 17 26 9 14 1014.5 1012.5 0.0
18/09:00pm 26.4 22.1 5.4 26 10.9 ESE 17 24 9 13 1014.3 1012.3 0.0
18/08:30pm 26.4 23.0 5.9 27 10.8 SE 13 15 7 8 1013.9 1011.9 0.0
18/08:00pm 27.7 24.3 5.9 25 11.5 ESE 13 17 7 9 1013.7 1011.7 0.0
18/07:30pm 28.8 25.7 5.6 23 12.3 ESE 11 15 6 8 1013.5 1011.5 0.0
18/07:00pm 29.4 26.0 6.1 23 12.5 SE 13 15 7 8 1013.2 1011.2 0.0
18/06:30pm 31.2 27.7 5.6 20 13.8 SE 13 17 7 9 1013.1 1011.1 0.0

Other formats

Comma delimited format used in spreadsheet applications
http://www.bom.gov.au/fwo/IDW60801/IDW60801.95634.axf

JavaScript Object Notation format (JSON) in row-major order
http://www.bom.gov.au/fwo/IDW60801/IDW60801.95634.json

Data quality

Most of these data are generated automatically and are frequently updated. Quality checks on data are not normally performed. It is possible for incorrect values to appear. Refer to information at About Latest Weather Observations and please check the disclaimer before using these data.